Time;durP1;ratioP1;P1;durP2;ratioP2;P2;SDS_P1;SDS_P2;PMS_P1;PMS_P2;Temp;Humidity;BMP_temperature;BMP_pressure;BME280_temperature;BME280_humidity;BME280_pressure;Samples;Min_cycle;Max_cycle;Signal;HPM_P1;HPM_P2
2023/02/15 00:01:15;;;;;;;23.08;17.75;;;2.90;99.90;;;;;;5052241;28;20033;-75
2023/02/15 00:03:40;;;;;;;23.63;19.42;;;3.00;99.90;;;;;;5051797;28;20087;-74
2023/02/15 00:06:06;;;;;;;20.55;17.58;;;2.60;99.90;;;;;;5051920;28;20040;-75
2023/02/15 00:08:32;;;;;;;20.13;17.77;;;2.60;99.90;;;;;;5050933;28;20103;-75
2023/02/15 00:11:08;;;;;;;20.23;17.73;;;2.60;99.90;;;;;;5052106;28;20041;-75
2023/02/15 00:13:35;;;;;;;19.55;15.95;;;2.70;99.90;;;;;;5050303;28;20056;-75
2023/02/15 00:16:06;;;;;;;21.08;17.85;;;2.50;99.90;;;;;;5050714;28;20120;-74
2023/02/15 00:18:32;;;;;;;19.80;17.05;;;2.60;99.90;;;;;;5050604;28;20087;-75
2023/02/15 00:20:58;;;;;;;20.35;17.73;;;2.80;99.90;;;;;;5050448;28;20041;-75
2023/02/15 00:23:24;;;;;;;20.05;17.20;;;2.90;99.90;;;;;;5046514;28;20116;-75
2023/02/15 00:25:49;;;;;;;21.38;17.33;;;2.50;99.90;;;;;;5043215;28;20120;-75
2023/02/15 00:28:15;;;;;;;20.27;16.92;;;2.90;99.90;;;;;;5046683;28;20087;-74
2023/02/15 00:30:41;;;;;;;18.88;16.90;;;2.50;99.90;;;;;;5048429;28;20044;-74
2023/02/15 00:33:06;;;;;;;18.98;16.27;;;2.30;99.90;;;;;;5051352;28;20523;-75
2023/02/15 00:35:32;;;;;;;18.70;16.63;;;2.60;99.90;;;;;;5050908;28;20491;-74
2023/02/15 00:37:57;;;;;;;22.52;18.55;;;2.70;99.90;;;;;;5051893;28;20037;-75
2023/02/15 00:40:23;;;;;;;19.65;17.55;;;2.40;99.90;;;;;;5044388;28;20171;-74
2023/02/15 00:42:48;;;;;;;18.73;16.75;;;2.30;99.90;;;;;;5047985;28;20040;-75
2023/02/15 00:45:14;;;;;;;17.08;15.30;;;2.20;99.90;;;;;;5050279;28;20090;-75
2023/02/15 00:47:39;;;;;;;17.70;15.80;;;2.40;99.90;;;;;;5051603;28;20472;-75
2023/02/15 00:50:06;;;;;;;16.40;14.75;;;2.10;99.90;;;;;;5051331;28;20234;-75
2023/02/15 00:52:31;;;;;;;16.30;14.70;;;2.40;99.90;;;;;;5050967;28;20037;-74
2023/02/15 00:54:57;;;;;;;17.50;15.68;;;2.20;99.90;;;;;;5051489;28;20048;-74
2023/02/15 00:57:22;;;;;;;15.82;14.23;;;2.20;99.90;;;;;;5051517;28;20056;-75
2023/02/15 00:59:48;;;;;;;16.08;14.38;;;2.10;99.90;;;;;;5050411;28;20063;-75
2023/02/15 01:02:14;;;;;;;16.23;14.63;;;2.40;99.90;;;;;;5050082;28;20519;-75
2023/02/15 01:04:39;;;;;;;18.05;16.25;;;2.30;99.90;;;;;;5042726;28;20526;-75
2023/02/15 01:07:05;;;;;;;17.52;15.75;;;2.10;99.90;;;;;;5051207;28;20045;-75
2023/02/15 01:09:30;;;;;;;18.20;16.40;;;2.30;99.90;;;;;;5051247;28;20128;-75
2023/02/15 01:11:56;;;;;;;18.17;16.25;;;2.20;99.90;;;;;;5051136;28;20040;-74
2023/02/15 01:14:21;;;;;;;18.55;16.60;;;2.20;99.90;;;;;;5049801;28;20614;-75
2023/02/15 01:16:47;;;;;;;22.23;18.67;;;2.20;99.90;;;;;;5033240;28;20036;-75
2023/02/15 01:19:12;;;;;;;19.13;16.80;;;2.00;99.90;;;;;;5049989;28;20041;-75
2023/02/15 01:21:40;;;;;;;20.27;16.60;;;2.00;99.90;;;;;;5042870;28;20167;-74
2023/02/15 01:24:12;;;;;;;20.02;16.27;;;2.10;99.90;;;;;;5050990;28;20049;-75
2023/02/15 01:26:37;;;;;;;21.10;18.63;;;2.00;99.90;;;;;;5049949;28;20524;-74
2023/02/15 01:29:05;;;;;;;20.70;18.00;;;2.00;99.90;;;;;;5049825;28;20037;-75
2023/02/15 01:31:31;;;;;;;20.20;17.88;;;1.70;99.90;;;;;;5050937;28;20377;-74
2023/02/15 01:33:56;;;;;;;19.55;17.55;;;2.10;99.90;;;;;;5049792;28;20041;-75
2023/02/15 01:36:22;;;;;;;20.33;17.10;;;1.90;99.90;;;;;;5051136;28;20412;-74
2023/02/15 01:38:49;;;;;;;19.90;17.15;;;2.20;99.90;;;;;;5051156;28;20040;-74
2023/02/15 01:41:22;;;;;;;25.90;18.02;;;1.90;99.90;;;;;;5049764;28;20680;-74
2023/02/15 01:43:57;;;;;;;19.40;17.00;;;1.90;99.90;;;;;;5049650;28;20043;-75
2023/02/15 01:46:43;;;;;;;18.92;16.92;;;1.90;99.90;;;;;;5053322;28;20041;-75
2023/02/15 01:49:14;;;;;;;18.50;16.48;;;2.20;99.90;;;;;;5053344;28;20071;-75
2023/02/15 01:51:42;;;;;;;18.08;16.25;;;2.10;99.90;;;;;;5054397;28;20123;-75
2023/02/15 01:54:31;;;;;;;18.80;16.80;;;1.80;99.90;;;;;;5053264;28;20067;-75
2023/02/15 01:57:01;;;;;;;18.58;16.67;;;1.90;99.90;;;;;;5053196;28;20056;-74
2023/02/15 01:59:27;;;;;;;18.77;16.05;;;2.10;99.90;;;;;;5053245;28;20404;-75
2023/02/15 02:01:56;;;;;;;19.38;16.73;;;2.10;99.90;;;;;;5054459;28;20040;-74
2023/02/15 02:04:31;;;;;;;20.42;16.83;;;1.80;99.90;;;;;;5036447;28;20404;-74
2023/02/15 02:06:58;;;;;;;19.55;17.55;;;1.90;99.90;;;;;;5053209;28;20377;-74
2023/02/15 02:09:24;;;;;;;20.10;17.35;;;2.20;99.90;;;;;;5053136;28;20049;-74
2023/02/15 02:11:50;;;;;;;26.48;20.88;;;2.00;99.90;;;;;;5053014;28;20548;-75
2023/02/15 02:14:17;;;;;;;28.75;22.02;;;2.20;99.90;;;;;;5052552;28;20068;-75
2023/02/15 02:17:20;;;;;;;24.95;21.02;;;2.00;99.90;;;;;;5052740;28;20119;-74
2023/02/15 02:20:12;;;;;;;28.17;22.33;;;1.80;99.90;;;;;;5052946;28;20466;-74
2023/02/15 02:22:58;;;;;;;25.35;22.17;;;2.20;99.90;;;;;;5052309;28;20123;-75
2023/02/15 02:26:00;;;;;;;26.20;20.50;;;1.80;99.90;;;;;;5054037;28;20044;-74
2023/02/15 02:28:43;;;;;;;27.08;21.13;;;1.80;99.90;;;;;;5054027;28;20042;-75
2023/02/15 02:31:23;;;;;;;27.20;22.88;;;1.70;99.90;;;;;;5053895;28;20041;-75
2023/02/15 02:34:09;;;;;;;26.15;21.67;;;2.10;99.90;;;;;;5053543;28;20080;-75
2023/02/15 02:36:57;;;;;;;29.83;23.50;;;1.80;99.90;;;;;;5052445;28;20473;-74
2023/02/15 02:39:39;;;;;;;27.27;23.42;;;2.10;99.90;;;;;;5053724;28;20041;-74
2023/02/15 02:42:25;;;;;;;29.60;23.55;;;1.90;99.90;;;;;;5053535;28;20115;-74
2023/02/15 02:44:57;;;;;;;27.95;23.35;;;1.90;99.90;;;;;;5053868;28;20049;-74
2023/02/15 02:47:32;;;;;;;27.63;23.63;;;2.10;99.90;;;;;;5053717;28;20055;-74
2023/02/15 02:50:04;;;;;;;28.42;21.42;;;1.90;99.90;;;;;;5053449;28;20408;-74
2023/02/15 02:52:44;;;;;;;28.88;23.30;;;2.00;99.90;;;;;;5053102;28;20095;-74
2023/02/15 02:55:12;;;;;;;28.30;22.20;;;1.90;99.90;;;;;;5053620;28;20485;-74
2023/02/15 02:57:45;;;;;;;26.45;21.23;;;1.60;99.90;;;;;;5052814;28;20040;-75
2023/02/15 03:00:11;;;;;;;26.50;22.90;;;2.00;99.90;;;;;;5053465;28;20060;-74
2023/02/15 03:02:42;;;;;;;28.70;21.85;;;1.50;99.90;;;;;;5052993;28;20048;-75
2023/02/15 03:05:14;;;;;;;29.42;23.05;;;1.50;99.90;;;;;;5052263;28;20437;-75
2023/02/15 03:07:42;;;;;;;25.35;21.95;;;2.00;99.90;;;;;;5053482;28;20044;-74
2023/02/15 03:10:09;;;;;;;27.45;22.95;;;2.00;99.90;;;;;;5051857;28;20041;-75
2023/02/15 03:12:37;;;;;;;25.95;21.77;;;1.80;99.90;;;;;;5052854;28;20044;-75
2023/02/15 03:15:08;;;;;;;29.02;23.65;;;1.90;99.90;;;;;;5052953;28;20041;-75
2023/02/15 03:17:41;;;;;;;26.08;22.33;;;1.90;99.90;;;;;;5052952;28;20037;-74
2023/02/15 03:20:33;;;;;;;25.65;21.52;;;1.80;99.90;;;;;;5051807;28;20070;-74
2023/02/15 03:23:10;;;;;;;25.52;20.33;;;1.90;99.90;;;;;;5052685;28;20037;-74
2023/02/15 03:25:45;;;;;;;30.73;22.60;;;1.50;99.90;;;;;;5051622;28;20048;-74
2023/02/15 03:28:19;;;;;;;26.90;22.80;;;1.50;99.90;;;;;;5052708;28;20090;-75
2023/02/15 03:30:48;;;;;;;26.60;22.08;;;1.60;99.90;;;;;;5052961;28;20547;-75
2023/02/15 03:33:15;;;;;;;26.15;22.90;;;1.50;99.90;;;;;;5051309;28;20404;-74
2023/02/15 03:35:49;;;;;;;28.60;23.52;;;1.70;99.90;;;;;;5052666;28;20045;-75
2023/02/15 03:38:20;;;;;;;26.30;21.95;;;1.90;99.90;;;;;;5051554;28;20033;-75
2023/02/15 03:43:52;;;;;;;25.25;21.27;;;1.50;99.90;;;;;;5052210;28;20191;-74
2023/02/15 03:46:30;;;;;;;29.58;24.17;;;1.40;99.90;;;;;;5051209;28;20041;-75
2023/02/15 03:49:08;;;;;;;29.02;23.38;;;1.30;99.90;;;;;;5052434;28;20412;-74
2023/02/15 03:51:37;;;;;;;27.90;23.15;;;1.40;99.90;;;;;;5051116;28;20098;-74
2023/02/15 03:54:41;;;;;;;29.38;24.10;;;1.40;99.90;;;;;;5050798;28;20098;-74
2023/02/15 04:03:03;;;;;;;24.88;21.05;;;1.50;99.90;;;;;;5050516;28;20053;-75
2023/02/15 04:05:28;;;;;;;27.42;22.38;;;1.50;99.90;;;;;;5050874;28;20159;-74
2023/02/15 04:07:54;;;;;;;26.35;22.30;;;1.70;99.90;;;;;;5051925;28;20067;-74
2023/02/15 04:13:03;;;;;;;27.25;21.85;;;1.70;99.90;;;;;;5031880;28;20049;-74
2023/02/15 04:18:14;;;;;;;25.92;21.30;;;1.80;99.90;;;;;;5032276;28;20041;-75
2023/02/15 04:26:11;;;;;;;29.02;23.30;;;1.50;99.90;;;;;;5050533;28;20056;-75
2023/02/15 04:28:37;;;;;;;28.67;22.23;;;1.70;99.90;;;;;;5051774;28;20041;-74
2023/02/15 04:31:02;;;;;;;29.70;24.65;;;1.70;99.90;;;;;;5051593;28;20045;-74
2023/02/15 04:33:28;;;;;;;33.80;26.15;;;1.50;99.90;;;;;;5050312;28;20048;-75
2023/02/15 04:35:53;;;;;;;33.08;26.40;;;1.70;99.90;;;;;;5051591;28;20037;-75
2023/02/15 04:38:19;;;;;;;33.28;26.23;;;1.70;99.90;;;;;;5051724;28;20532;-74
2023/02/15 04:40:48;;;;;;;40.25;28.88;;;1.50;99.90;;;;;;5050331;28;20033;-74
2023/02/15 04:43:14;;;;;;;36.13;28.98;;;1.30;99.90;;;;;;5051104;28;20086;-74
2023/02/15 04:45:39;;;;;;;35.67;26.77;;;1.70;99.90;;;;;;5051502;28;20128;-75
2023/02/15 04:48:05;;;;;;;36.63;28.70;;;1.80;99.90;;;;;;5050528;28;20186;-74
2023/02/15 04:50:30;;;;;;;38.05;28.25;;;1.70;99.90;;;;;;5051444;28;20045;-75
2023/02/15 04:52:56;;;;;;;39.22;29.02;;;1.70;99.90;;;;;;5050025;28;20048;-75
2023/02/15 04:55:21;;;;;;;38.10;29.35;;;1.50;99.90;;;;;;5050128;28;20047;-74
2023/02/15 04:57:47;;;;;;;38.50;29.00;;;1.40;99.90;;;;;;5051358;28;20124;-74
2023/02/15 05:00:13;;;;;;;41.88;29.67;;;1.50;99.90;;;;;;5050319;28;20072;-74
2023/02/15 05:02:38;;;;;;;38.20;28.45;;;1.50;99.90;;;;;;5049730;28;20119;-75
2023/02/15 05:05:04;;;;;;;41.03;29.10;;;1.50;99.90;;;;;;5050063;28;20510;-75
2023/02/15 05:07:29;;;;;;;39.78;29.00;;;1.70;99.90;;;;;;5051553;28;20045;-74
2023/02/15 05:09:55;;;;;;;37.08;28.73;;;1.60;99.90;;;;;;5050009;28;20040;-74
2023/02/15 05:12:20;;;;;;;41.28;29.38;;;1.60;99.90;;;;;;5049959;28;20037;-74
2023/02/15 05:14:46;;;;;;;67.07;31.70;;;1.70;99.90;;;;;;5051134;28;20492;-74
2023/02/15 05:17:11;;;;;;;51.13;31.20;;;1.50;99.90;;;;;;5033377;28;20496;-74
2023/02/15 05:19:37;;;;;;;40.78;29.77;;;1.60;99.90;;;;;;5049990;28;20090;-74
2023/02/15 05:22:04;;;;;;;39.60;29.75;;;1.40;99.90;;;;;;5053733;28;20036;-74
2023/02/15 05:29:57;;;;;;;45.22;33.10;;;1.60;99.90;;;;;;5055185;28;20044;-74
2023/02/15 05:32:23;;;;;;;74.68;34.08;;;1.40;99.90;;;;;;5054764;28;20040;-73
2023/02/15 05:34:49;;;;;;;74.32;34.20;;;1.40;99.90;;;;;;5053597;28;20040;-73
2023/02/15 05:37:14;;;;;;;47.58;34.83;;;1.50;99.90;;;;;;5053596;28;20041;-74
2023/02/15 05:39:40;;;;;;;55.50;35.05;;;1.60;99.90;;;;;;5054694;28;20175;-73
2023/02/15 05:42:06;;;;;;;71.15;38.22;;;1.60;99.90;;;;;;5053587;28;20041;-73
2023/02/15 05:44:31;;;;;;;48.65;35.22;;;1.60;99.90;;;;;;5054532;28;20492;-73
2023/02/15 05:46:57;;;;;;;102.18;37.30;;;1.60;99.90;;;;;;5036896;28;20040;-74
2023/02/15 05:49:23;;;;;;;49.55;36.05;;;1.50;99.90;;;;;;5053367;28;20418;-74
2023/02/15 05:51:48;;;;;;;48.60;34.50;;;1.60;99.90;;;;;;5054451;28;20052;-73
2023/02/15 05:54:14;;;;;;;52.25;35.33;;;1.60;99.90;;;;;;5054168;28;20076;-73
2023/02/15 05:56:39;;;;;;;49.50;33.42;;;1.60;99.90;;;;;;5054543;28;20217;-73
2023/02/15 05:59:05;;;;;;;46.95;34.08;;;1.60;99.90;;;;;;5053079;28;20084;-73
2023/02/15 06:01:30;;;;;;;127.32;39.97;;;1.50;99.90;;;;;;5054444;28;20128;-73
2023/02/15 06:03:56;;;;;;;45.72;34.38;;;1.40;99.90;;;;;;5054123;28;20403;-73
2023/02/15 06:06:22;;;;;;;47.42;35.65;;;1.70;99.90;;;;;;5054353;28;20039;-73
2023/02/15 06:08:48;;;;;;;48.00;34.53;;;1.50;99.90;;;;;;5054169;28;20060;-73
2023/02/15 06:11:13;;;;;;;44.30;32.00;;;1.60;99.90;;;;;;5054218;28;20041;-75
2023/02/15 06:13:39;;;;;;;49.15;33.75;;;1.70;99.90;;;;;;5052545;28;20049;-75
2023/02/15 06:16:06;;;;;;;46.85;33.35;;;1.40;99.90;;;;;;5054236;28;20124;-76
2023/02/15 06:18:31;;;;;;;49.05;33.55;;;1.40;99.90;;;;;;5052866;28;20033;-75
2023/02/15 06:20:57;;;;;;;47.63;34.05;;;1.60;99.90;;;;;;5054053;28;20047;-75
2023/02/15 06:23:22;;;;;;;50.40;33.83;;;1.50;99.90;;;;;;5052386;28;20037;-76
2023/02/15 06:25:48;;;;;;;47.35;33.00;;;1.40;99.90;;;;;;5052742;28;20386;-74
2023/02/15 06:28:13;;;;;;;46.33;31.98;;;1.50;99.90;;;;;;5052912;28;20037;-74
2023/02/15 06:30:39;;;;;;;46.92;33.67;;;1.40;99.90;;;;;;5053983;28;20049;-74
2023/02/15 06:33:05;;;;;;;46.15;34.58;;;1.40;99.90;;;;;;5052527;28;20079;-74
2023/02/15 06:35:30;;;;;;;49.88;33.55;;;1.50;99.90;;;;;;5053622;28;20412;-74
2023/02/15 06:37:55;;;;;;;49.95;35.15;;;1.50;99.90;;;;;;5053478;28;20048;-74
2023/02/15 06:40:21;;;;;;;44.58;33.72;;;1.50;99.90;;;;;;5052698;28;20037;-74
2023/02/15 06:42:47;;;;;;;49.47;34.30;;;1.50;99.90;;;;;;5053359;28;20048;-74
2023/02/15 06:45:13;;;;;;;47.92;34.85;;;1.50;99.90;;;;;;5053696;28;20488;-75
2023/02/15 06:47:38;;;;;;;51.67;36.08;;;1.50;99.90;;;;;;5052575;28;20511;-74
2023/02/15 06:50:06;;;;;;;46.58;34.35;;;1.40;99.90;;;;;;5053498;28;20044;-74
2023/02/15 06:52:32;;;;;;;47.92;34.85;;;1.30;99.90;;;;;;5070967;22;20079;-68
2023/02/15 06:54:57;;;;;;;43.28;33.35;;;1.50;99.90;;;;;;5072625;28;20036;-68
2023/02/15 06:57:23;;;;;;;73.30;38.00;;;1.50;99.90;;;;;;5072308;28;20506;-69
2023/02/15 06:59:48;;;;;;;47.88;35.15;;;1.30;99.90;;;;;;5071917;28;20041;-68
2023/02/15 07:02:14;;;;;;;48.63;35.67;;;1.50;99.90;;;;;;5071807;28;20040;-68
2023/02/15 07:04:40;;;;;;;46.60;35.05;;;1.40;99.90;;;;;;5070921;28;20519;-68
2023/02/15 07:07:09;;;;;;;47.55;32.80;;;1.50;99.90;;;;;;5072256;28;20040;-68
2023/02/15 07:09:34;;;;;;;48.97;35.00;;;1.40;99.90;;;;;;5072146;28;20083;-69
2023/02/15 07:14:44;;;;;;;47.63;34.63;;;1.40;99.90;;;;;;5070790;28;20051;-67
2023/02/15 07:17:09;;;;;;;49.88;35.58;;;1.40;99.90;;;;;;5071803;28;20048;-68
2023/02/15 07:19:35;;;;;;;48.10;34.17;;;1.60;99.90;;;;;;5071978;28;20077;-68
2023/02/15 07:22:00;;;;;;;46.70;33.42;;;1.50;99.90;;;;;;5071792;28;20119;-67
2023/02/15 07:24:26;;;;;;;47.83;35.00;;;1.60;99.90;;;;;;5071672;28;20124;-67
2023/02/15 07:26:51;;;;;;;50.00;35.10;;;1.60;99.90;;;;;;5070298;28;20075;-67
2023/02/15 07:29:17;;;;;;;49.42;35.67;;;1.50;99.90;;;;;;5071739;28;20036;-67
2023/02/15 07:31:45;;;;;;;48.65;34.55;;;1.60;99.90;;;;;;5071659;28;20079;-68
2023/02/15 07:34:10;;;;;;;46.90;34.97;;;1.60;99.90;;;;;;5070226;28;20111;-67
2023/02/15 07:36:36;;;;;;;48.10;34.80;;;1.60;99.90;;;;;;5071469;28;20587;-67
2023/02/15 07:39:02;;;;;;;52.35;34.60;;;1.60;99.90;;;;;;5071338;28;20081;-68
2023/02/15 07:41:27;;;;;;;49.15;33.72;;;1.70;99.90;;;;;;5071398;28;20039;-68
2023/02/15 07:43:53;;;;;;;55.60;36.88;;;1.80;99.90;;;;;;5070769;28;20032;-68
2023/02/15 07:46:20;;;;;;;48.78;35.47;;;2.10;99.90;;;;;;5071199;28;20040;-68
2023/02/15 07:48:46;;;;;;;48.40;35.08;;;2.00;99.90;;;;;;5071498;28;20148;-68
2023/02/15 07:51:13;;;;;;;57.40;39.15;;;2.20;99.90;;;;;;5071378;28;20090;-68
2023/02/15 07:53:39;;;;;;;60.95;38.60;;;2.20;99.90;;;;;;5070710;28;20123;-67
2023/02/15 07:56:07;;;;;;;57.10;37.97;;;2.50;99.90;;;;;;5070524;28;20111;-68
2023/02/15 07:58:51;;;;;;;60.10;40.33;;;2.60;99.90;;;;;;5071086;28;20032;-68
2023/02/15 08:01:23;;;;;;;59.83;39.17;;;2.70;99.90;;;;;;5071201;28;20411;-69
2023/02/15 08:03:49;;;;;;;60.05;38.90;;;2.70;99.90;;;;;;5070882;28;20040;-68
2023/02/15 08:06:14;;;;;;;62.75;39.95;;;2.90;99.90;;;;;;5071070;28;20047;-68
2023/02/15 08:08:41;;;;;;;68.00;41.95;;;2.80;99.90;;;;;;5070867;28;20119;-68
2023/02/15 08:11:33;;;;;;;62.55;38.05;;;3.00;99.90;;;;;;5070735;28;20036;-68
2023/02/15 08:13:59;;;;;;;61.78;39.35;;;3.20;99.90;;;;;;5069414;28;20050;-68
2023/02/15 08:16:36;;;;;;;66.72;40.15;;;3.20;99.90;;;;;;5070930;28;20067;-68
2023/02/15 08:19:23;;;;;;;64.65;39.63;;;3.30;99.90;;;;;;5070876;28;20040;-69
2023/02/15 08:21:57;;;;;;;72.90;44.35;;;3.40;99.90;;;;;;5070260;28;20127;-69
2023/02/15 08:24:27;;;;;;;61.65;40.47;;;3.40;99.90;;;;;;5070815;28;20415;-68
2023/02/15 08:26:53;;;;;;;62.08;40.88;;;3.70;99.90;;;;;;5070784;28;20048;-69
2023/02/15 08:29:22;;;;;;;62.67;40.70;;;3.70;99.90;;;;;;5070785;28;20040;-69
2023/02/15 08:31:48;;;;;;;64.05;40.72;;;3.90;99.90;;;;;;5070543;28;20047;-69
2023/02/15 08:34:17;;;;;;;61.65;39.90;;;4.00;99.90;;;;;;5070314;28;20119;-69
2023/02/15 08:36:44;;;;;;;59.40;38.58;;;4.00;99.90;;;;;;5070551;28;20040;-69
2023/02/15 08:39:11;;;;;;;63.55;40.22;;;4.20;99.90;;;;;;5069280;28;20492;-68
2023/02/15 08:41:39;;;;;;;68.53;40.80;;;4.30;99.90;;;;;;5070525;28;20060;-68
2023/02/15 08:44:07;;;;;;;60.05;40.45;;;4.30;99.90;;;;;;5070217;28;20032;-68
2023/02/15 08:46:36;;;;;;;62.03;39.55;;;4.40;99.90;;;;;;5070402;28;20492;-68
2023/02/15 08:49:02;;;;;;;57.25;37.95;;;4.40;99.90;;;;;;5069450;28;20059;-68
2023/02/15 08:51:33;;;;;;;60.97;39.00;;;4.50;99.90;;;;;;5070611;28;20041;-68
2023/02/15 08:54:01;;;;;;;55.00;36.60;;;4.50;99.90;;;;;;5070089;28;20079;-67
2023/02/15 08:56:34;;;;;;;59.22;37.58;;;4.40;99.90;;;;;;5073201;28;20500;-68
2023/02/15 08:59:00;;;;;;;55.33;37.47;;;4.40;99.90;;;;;;5073183;28;20119;-68
2023/02/15 09:01:30;;;;;;;59.17;37.50;;;4.50;99.90;;;;;;5056339;28;20433;-67
2023/02/15 09:04:05;;;;;;;56.17;35.55;;;4.60;99.90;;;;;;5074356;28;20032;-68
2023/02/15 09:06:31;;;;;;;58.92;37.03;;;4.60;99.90;;;;;;5073349;28;20044;-67
2023/02/15 09:08:57;;;;;;;54.63;34.97;;;4.60;99.90;;;;;;5074442;28;20039;-67
2023/02/15 09:11:25;;;;;;;57.75;34.92;;;4.50;99.90;;;;;;5074301;28;20045;-67
2023/02/15 09:13:58;;;;;;;57.33;34.25;;;4.60;99.90;;;;;;5073892;28;20093;-67
2023/02/15 09:16:26;;;;;;;53.80;35.25;;;4.70;99.90;;;;;;5072942;28;20061;-67
2023/02/15 09:18:52;;;;;;;55.15;35.00;;;4.70;99.90;;;;;;5074298;28;20158;-68
2023/02/15 09:21:21;;;;;;;57.42;34.53;;;4.80;99.90;;;;;;5074126;28;20039;-68
2023/02/15 09:23:49;;;;;;;58.40;36.25;;;4.80;99.90;;;;;;5072456;28;20041;-68
2023/02/15 09:26:17;;;;;;;58.17;35.63;;;4.70;99.90;;;;;;5073886;28;20123;-68
2023/02/15 09:28:43;;;;;;;54.50;34.35;;;4.90;99.90;;;;;;5074284;28;20098;-68
2023/02/15 09:31:17;;;;;;;55.88;35.80;;;4.90;99.90;;;;;;5074051;28;20048;-70
2023/02/15 09:33:44;;;;;;;59.05;36.72;;;4.80;99.90;;;;;;5072480;28;20392;-70
2023/02/15 09:36:40;;;;;;;58.38;35.35;;;4.80;99.90;;;;;;5072393;28;20040;-70
2023/02/15 09:39:14;;;;;;;62.63;37.53;;;5.00;99.90;;;;;;5065076;28;20052;-68
2023/02/15 09:41:52;;;;;;;66.05;38.45;;;5.10;99.90;;;;;;5073828;28;20040;-68
2023/02/15 09:44:48;;;;;;;63.60;39.05;;;5.10;99.90;;;;;;5073599;28;20072;-68
2023/02/15 09:47:39;;;;;;;58.85;37.85;;;5.10;99.90;;;;;;5072289;28;20075;-68
2023/02/15 09:50:32;;;;;;;60.05;36.78;;;5.20;99.90;;;;;;5073728;28;20124;-68
2023/02/15 09:53:06;;;;;;;67.30;39.20;;;5.30;99.90;;;;;;5073103;28;20088;-67
2023/02/15 09:56:00;;;;;;;61.50;38.33;;;5.40;99.90;;;;;;5073639;28;20080;-68
2023/02/15 09:58:44;;;;;;;72.47;40.35;;;5.50;99.90;;;;;;5073562;28;20119;-68
2023/02/15 10:01:34;;;;;;;66.40;38.17;;;5.60;99.90;;;;;;5073507;28;20080;-68
2023/02/15 10:04:27;;;;;;;66.07;36.63;;;5.60;99.90;;;;;;5055260;28;20149;-68
2023/02/15 10:07:01;;;;;;;62.65;38.22;;;5.60;99.90;;;;;;5073475;28;20048;-67
2023/02/15 10:09:47;;;;;;;67.07;39.45;;;5.70;99.90;;;;;;5073338;28;20071;-69
2023/02/15 10:12:46;;;;;;;58.70;34.15;;;5.80;99.90;;;;;;5073379;28;20404;-68
2023/02/15 10:15:20;;;;;;;63.22;37.70;;;5.80;99.90;;;;;;5073388;28;20044;-68
2023/02/15 10:18:10;;;;;;;60.72;36.60;;;6.00;99.90;;;;;;5073104;28;20051;-70
2023/02/15 10:20:52;;;;;;;65.30;38.65;;;5.90;99.90;;;;;;5073487;28;20036;-70
2023/02/15 10:23:59;;;;;;;54.65;35.45;;;6.00;99.90;;;;;;5072640;28;20486;-70
2023/02/15 10:26:35;;;;;;;63.30;38.67;;;6.00;99.90;;;;;;5073010;28;20076;-69
2023/02/15 10:29:16;;;;;;;68.70;39.03;;;6.20;99.90;;;;;;5073203;28;20066;-68
2023/02/15 10:32:21;;;;;;;70.45;39.13;;;6.20;99.90;;;;;;5073030;28;20092;-68
2023/02/15 10:35:25;;;;;;;67.25;38.70;;;6.30;99.90;;;;;;5030347;28;20122;-68
2023/02/15 10:38:01;;;;;;;68.00;40.95;;;6.40;99.90;;;;;;5030471;28;20050;-68
2023/02/15 10:40:40;;;;;;;67.60;38.72;;;6.50;99.90;;;;;;5060032;28;20187;-68
2023/02/15 10:43:27;;;;;;;64.35;38.05;;;6.50;99.90;;;;;;5070233;28;20467;-67
2023/02/15 10:46:13;;;;;;;70.95;40.88;;;6.70;99.90;;;;;;5070622;28;20036;-68
2023/02/15 10:49:14;;;;;;;71.18;40.75;;;6.70;99.90;;;;;;5072614;28;20496;-68
2023/02/15 10:52:17;;;;;;;71.05;41.03;;;6.80;99.90;;;;;;5072453;28;20090;-69
2023/02/15 10:55:03;;;;;;;67.38;40.42;;;6.80;99.90;;;;;;5071198;28;20081;-69
2023/02/15 10:57:49;;;;;;;65.20;41.10;;;6.90;99.90;;;;;;5072468;28;20036;-68
2023/02/15 11:00:46;;;;;;;70.68;42.15;;;7.10;99.90;;;;;;5072327;28;20036;-68
2023/02/15 11:03:12;;;;;;;66.72;39.90;;;7.10;99.90;;;;;;5054537;28;20072;-69
2023/02/15 11:05:42;;;;;;;64.72;39.97;;;7.20;99.90;;;;;;5070520;28;20702;-68
2023/02/15 11:08:10;;;;;;;71.20;39.95;;;7.30;99.90;;;;;;5071211;28;20040;-68
2023/02/15 11:10:56;;;;;;;66.28;39.58;;;7.50;99.90;;;;;;5071698;28;20439;-68
2023/02/15 11:13:27;;;;;;;70.10;37.80;;;7.60;99.90;;;;;;5071924;28;20036;-70
2023/02/15 11:15:52;;;;;;;66.93;39.55;;;7.50;99.90;;;;;;5072158;28;20037;-69
2023/02/15 11:18:30;;;;;;;65.80;38.55;;;7.60;99.90;;;;;;5071297;28;20161;-67
2023/02/15 11:21:17;;;;;;;67.07;38.78;;;7.70;99.90;;;;;;5071910;28;20072;-67
2023/02/15 11:23:44;;;;;;;72.30;40.00;;;7.80;99.90;;;;;;5071011;28;20045;-68
2023/02/15 11:26:36;;;;;;;64.03;37.22;;;7.80;99.90;;;;;;5072058;28;20090;-68
2023/02/15 11:29:13;;;;;;;71.95;39.83;;;7.90;99.90;;;;;;5066355;28;20070;-69
2023/02/15 11:31:57;;;;;;;72.00;40.80;;;8.00;99.90;;;;;;5071184;28;20597;-70
2023/02/15 11:34:36;;;;;;;62.13;35.90;;;8.10;99.90;;;;;;5069644;28;20071;-68
2023/02/15 11:37:09;;;;;;;62.33;35.65;;;8.10;99.90;;;;;;5071412;28;20520;-68
2023/02/15 11:39:35;;;;;;;68.95;35.90;;;8.00;99.90;;;;;;5070616;28;20399;-68
2023/02/15 11:42:16;;;;;;;61.90;34.70;;;8.20;99.90;;;;;;5070765;28;20033;-68
2023/02/15 11:45:03;;;;;;;56.28;34.70;;;8.10;99.90;;;;;;5071632;28;20040;-68
2023/02/15 11:47:28;;;;;;;61.22;35.22;;;8.30;99.90;;;;;;5071063;28;20094;-68
2023/02/15 11:49:54;;;;;;;61.00;35.25;;;8.30;99.90;;;;;;5071334;28;20048;-68
2023/02/15 11:52:20;;;;;;;64.90;35.88;;;8.40;99.90;;;;;;5052495;28;20129;-68
2023/02/15 11:54:49;;;;;;;59.30;37.67;;;8.60;99.90;;;;;;5071291;28;20083;-68
2023/02/15 11:57:40;;;;;;;65.13;33.47;;;8.60;99.90;;;;;;5069357;28;20063;-68
2023/02/15 12:00:35;;;;;;;61.17;34.58;;;8.60;99.90;;;;;;5064950;28;20045;-68
2023/02/15 12:03:06;;;;;;;58.47;34.22;;;8.70;99.90;;;;;;5069246;28;20036;-68
2023/02/15 12:05:34;;;;;;;54.90;32.22;;;8.80;99.90;;;;;;5070784;28;20044;-68
2023/02/15 12:08:17;;;;;;;52.42;34.50;;;8.90;99.90;;;;;;5070763;28;20396;-69
2023/02/15 12:11:12;;;;;;;51.55;32.42;;;8.90;99.90;;;;;;5069910;28;20037;-69
2023/02/15 12:14:00;;;;;;;49.05;33.10;;;8.90;99.90;;;;;;5069420;28;20391;-69
2023/02/15 12:16:27;;;;;;;50.70;30.20;;;9.10;99.90;;;;;;5071038;28;20105;-69
2023/02/15 12:18:59;;;;;;;60.00;32.42;;;9.30;99.90;;;;;;5070215;28;20081;-69
2023/02/15 12:21:28;;;;;;;54.20;32.90;;;9.30;99.90;;;;;;5069160;28;20048;-68
2023/02/15 12:23:58;;;;;;;51.15;30.30;;;9.30;99.90;;;;;;5069755;28;20223;-69
2023/02/15 12:26:26;;;;;;;52.88;31.77;;;9.40;99.90;;;;;;5068676;28;20436;-69
2023/02/15 12:28:54;;;;;;;52.95;31.38;;;9.50;99.90;;;;;;5070180;28;20045;-69
2023/02/15 12:31:27;;;;;;;58.40;34.25;;;9.50;99.90;;;;;;5067524;28;20519;-68
2023/02/15 12:33:57;;;;;;;52.83;30.20;;;9.50;99.90;;;;;;5070113;28;20135;-68
2023/02/15 12:36:31;;;;;;;58.60;30.95;;;9.50;99.90;;;;;;5069220;28;20197;-69
2023/02/15 12:39:25;;;;;;;51.58;30.80;;;9.50;99.90;;;;;;5069543;28;20166;-69
2023/02/15 12:41:54;;;;;;;;;;;9.70;99.90;;;;;;5067588;28;20048;-69
2023/02/15 12:44:24;;;;;;;54.08;31.40;;;9.80;99.90;;;;;;5068797;28;19916;-69
2023/02/15 12:47:03;;;;;;;61.78;31.58;;;9.80;99.90;;;;;;5070770;28;20099;-67
2023/02/15 12:49:37;;;;;;;56.00;31.85;;;9.80;99.90;;;;;;5070602;28;20117;-69
2023/02/15 12:52:24;;;;;;;55.20;32.30;;;9.80;99.90;;;;;;5069264;28;20344;-69
2023/02/15 12:54:51;;;;;;;52.33;32.47;;;9.90;99.90;;;;;;5085701;22;20049;-75
2023/02/15 12:57:29;;;;;;;54.20;33.15;;;9.90;99.90;;;;;;5071173;28;20036;-76
2023/02/15 13:00:05;;;;;;;53.65;33.90;;;10.10;99.90;;;;;;5071492;28;20035;-76
2023/02/15 13:02:42;;;;;;;56.28;34.30;;;10.10;99.90;;;;;;5071168;28;20075;-76
2023/02/15 13:05:33;;;;;;;57.10;31.85;;;10.10;99.90;;;;;;5016542;28;20074;-76
2023/02/15 13:08:08;;;;;;;59.00;35.45;;;10.20;99.90;;;;;;5033387;28;20049;-76
2023/02/15 13:10:39;;;;;;;56.55;33.92;;;10.10;99.90;;;;;;5051407;28;20036;-76
2023/02/15 13:13:17;;;;;;;60.70;35.35;;;10.20;99.90;;;;;;5051270;28;20033;-76
2023/02/15 13:15:48;;;;;;;60.40;34.38;;;10.20;99.90;;;;;;5050905;28;20048;-75
2023/02/15 13:18:29;;;;;;;56.13;35.35;;;10.30;99.90;;;;;;5050056;28;20033;-76
2023/02/15 13:20:55;;;;;;;54.95;34.83;;;10.30;99.90;;;;;;5032834;28;20384;-75
2023/02/15 13:23:29;;;;;;;59.50;35.17;;;10.30;99.90;;;;;;5032685;28;20453;-75
2023/02/15 13:25:58;;;;;;;56.92;35.33;;;10.30;99.90;;;;;;5050966;28;20045;-76
2023/02/15 13:28:47;;;;;;;53.75;33.10;;;10.20;99.90;;;;;;5049981;28;20037;-75